Time;durP1;ratioP1;P1;durP2;ratioP2;P2;SDS_P1;SDS_P2;PMS_P1;PMS_P2;Temp;Humidity;BMP_temperature;BMP_pressure;BME280_temperature;BME280_humidity;BME280_pressure;Samples;Min_cycle;Max_cycle;Signal;HPM_P1;HPM_P2
2021/08/16 00:01:04;;;;;;;;;;;15.30;69.80;;;;;;5094249;28;19918;-67
2021/08/16 00:03:31;;;;;;;;;;;15.30;69.50;;;;;;5076321;28;20338;-64
2021/08/16 00:05:57;;;;;;;;;;;15.30;69.10;;;;;;5094401;28;19912;-65
2021/08/16 00:08:24;;;;;;;;;;;15.30;69.40;;;;;;5094101;28;20371;-64
2021/08/16 00:10:51;;;;;;;;;;;15.40;68.20;;;;;;5093898;28;20351;-66
2021/08/16 00:13:20;;;;;;;;;;;15.40;68.50;;;;;;5094013;28;19951;-64
2021/08/16 00:15:47;;;;;;;;;;;15.60;70.80;;;;;;5093732;28;19912;-66
2021/08/16 00:18:14;;;;;;;;;;;15.80;68.50;;;;;;5093988;28;20270;-65
2021/08/16 00:20:40;;;;;;;;;;;15.90;68.90;;;;;;5093885;28;19909;-65
2021/08/16 00:23:07;;;;;;;;;;;16.00;69.50;;;;;;5093987;28;20006;-64
2021/08/16 00:25:33;;;;;;;;;;;16.00;68.70;;;;;;5093604;28;19923;-65
2021/08/16 00:28:00;;;;;;;;;;;16.00;67.70;;;;;;5092770;28;20347;-64
2021/08/16 00:30:27;;;;;;;;;;;15.90;68.30;;;;;;5093594;28;19916;-65
2021/08/16 00:32:54;;;;;;;;;;;15.90;66.80;;;;;;5093537;28;20354;-65
2021/08/16 00:35:20;;;;;;;;;;;16.00;67.50;;;;;;5093650;28;19941;-65
2021/08/16 00:37:47;;;;;;;;;;;16.00;67.70;;;;;;5093324;28;19919;-64
2021/08/16 00:40:14;;;;;;;;;;;16.00;67.90;;;;;;5093423;28;19999;-65
2021/08/16 00:42:41;;;;;;;;;;;16.10;68.50;;;;;;5093641;28;19908;-65
2021/08/16 00:45:08;;;;;;;;;;;16.10;67.60;;;;;;5093399;28;20309;-66
2021/08/16 00:47:35;;;;;;;;;;;16.20;66.90;;;;;;5093147;28;19931;-65
2021/08/16 00:50:02;;;;;;;;;;;16.10;66.90;;;;;;5093105;28;19915;-65
2021/08/16 00:52:29;;;;;;;;;;;16.20;67.00;;;;;;5093142;28;19912;-66
2021/08/16 00:54:56;;;;;;;;;;;16.30;68.30;;;;;;5093303;28;19918;-67
2021/08/16 00:57:23;;;;;;;;;;;16.30;67.20;;;;;;5093076;28;19924;-66
2021/08/16 00:59:50;;;;;;;;;;;16.50;65.50;;;;;;5092952;28;19916;-65
2021/08/16 01:02:17;;;;;;;;;;;16.50;66.00;;;;;;5087684;28;19916;-67
2021/08/16 01:04:44;;;;;;;;;;;16.50;66.30;;;;;;5092664;28;19943;-66
2021/08/16 01:07:10;;;;;;;;;;;16.60;66.00;;;;;;5092998;28;19908;-66
2021/08/16 01:09:37;;;;;;;;;;;16.60;65.90;;;;;;5092600;28;19908;-65
2021/08/16 01:12:04;;;;;;;;;;;16.80;66.30;;;;;;5074628;28;19912;-66
2021/08/16 01:14:31;;;;;;;;;;;17.20;67.30;;;;;;5092558;28;19950;-66
2021/08/16 01:16:58;;;;;;;;;;;17.50;66.50;;;;;;5092385;28;20355;-65
2021/08/16 01:19:25;;;;;;;;;;;17.70;64.90;;;;;;5092903;28;19909;-66
2021/08/16 01:21:51;;;;;;;;;;;18.20;63.00;;;;;;5092625;28;20282;-66
2021/08/16 01:24:18;;;;;;;;;;;18.40;62.90;;;;;;5092221;28;19908;-66
2021/08/16 01:26:45;;;;;;;;;;;18.30;63.50;;;;;;5092530;28;19912;-66
2021/08/16 01:29:19;;;;;;;;;;;18.50;63.90;;;;;;5092754;28;19915;-65
2021/08/16 01:31:46;;;;;;;;;;;19.20;62.60;;;;;;5092213;28;19908;-66
2021/08/16 01:34:12;;;;;;;;;;;19.00;61.70;;;;;;5092700;28;20003;-66
2021/08/16 01:36:44;;;;;;;;;;;18.60;63.00;;;;;;5092317;28;19924;-66
2021/08/16 01:39:11;;;;;;;;;;;18.30;63.20;;;;;;5092166;28;20373;-66
2021/08/16 01:41:38;;;;;;;;;;;18.20;63.60;;;;;;5074314;28;19959;-66
2021/08/16 01:44:05;;;;;;;;;;;18.10;63.80;;;;;;5092148;28;19915;-65
2021/08/16 01:46:31;;;;;;;;;;;18.10;64.00;;;;;;5074163;28;19955;-66
2021/08/16 01:48:58;;;;;;;;;;;18.00;64.00;;;;;;5092671;28;19920;-65
2021/08/16 01:51:24;;;;;;;;;;;17.90;64.50;;;;;;5092531;28;19995;-66
2021/08/16 01:53:51;;;;;;;;;;;17.80;63.70;;;;;;5092188;28;19915;-64
2021/08/16 01:56:21;;;;;;;;;;;17.70;63.90;;;;;;5091959;28;19963;-66
2021/08/16 01:58:47;;;;;;;;;;;17.70;63.90;;;;;;5092370;28;19960;-66
2021/08/16 02:01:14;;;;;;;;;;;17.70;62.90;;;;;;5092197;28;19908;-66
2021/08/16 02:03:41;;;;;;;;;;;17.60;63.40;;;;;;5092188;28;20270;-66
2021/08/16 02:06:08;;;;;;;;;;;17.60;63.60;;;;;;5092442;28;19961;-68
2021/08/16 02:08:34;;;;;;;;;;;17.50;63.10;;;;;;5092154;28;19912;-66
2021/08/16 02:11:01;;;;;;;;;;;17.70;64.50;;;;;;5091948;28;20331;-65
2021/08/16 02:13:28;;;;;;;;;;;18.00;64.50;;;;;;5092069;28;19942;-65
2021/08/16 02:15:54;;;;;;;;;;;18.00;62.80;;;;;;5091860;28;19912;-65
2021/08/16 02:18:21;;;;;;;;;;;18.00;64.00;;;;;;5092223;28;19923;-66
2021/08/16 02:20:48;;;;;;;;;;;18.00;62.60;;;;;;5092231;28;20374;-64
2021/08/16 02:23:14;;;;;;;;;;;17.90;63.40;;;;;;5092144;28;19915;-65
2021/08/16 02:25:41;;;;;;;;;;;17.80;63.10;;;;;;5091792;28;19908;-66
2021/08/16 02:28:07;;;;;;;;;;;17.90;62.90;;;;;;5092173;28;20384;-65
2021/08/16 02:30:34;;;;;;;;;;;17.90;62.40;;;;;;5091932;28;19999;-65
2021/08/16 02:33:01;;;;;;;;;;;17.90;62.90;;;;;;5074051;28;19958;-65
2021/08/16 02:35:27;;;;;;;;;;;17.90;62.70;;;;;;5092157;28;19908;-65
2021/08/16 02:37:54;;;;;;;;;;;17.90;61.70;;;;;;5092027;28;19951;-66
2021/08/16 02:40:21;;;;;;;;;;;17.90;62.50;;;;;;5091927;28;19912;-65
2021/08/16 02:42:47;;;;;;;;;;;18.00;61.70;;;;;;5092023;28;19969;-66
2021/08/16 02:45:14;;;;;;;;;;;18.00;62.20;;;;;;5091845;28;20017;-66
2021/08/16 02:47:41;;;;;;;;;;;18.10;63.40;;;;;;5091675;28;20290;-65
2021/08/16 02:50:08;;;;;;;;;;;18.20;61.50;;;;;;5091769;28;19914;-65
2021/08/16 02:52:34;;;;;;;;;;;18.10;62.30;;;;;;5094086;28;19909;-65
2021/08/16 02:55:01;;;;;;;;;;;18.10;62.80;;;;;;5095433;28;19914;-65
2021/08/16 02:57:28;;;;;;;;;;;18.10;63.00;;;;;;5095686;28;19959;-65
2021/08/16 02:59:55;;;;;;;;;;;18.20;62.40;;;;;;5095428;28;19915;-66
2021/08/16 03:02:21;;;;;;;;;;;18.20;62.60;;;;;;5095535;28;19908;-64
2021/08/16 03:04:48;;;;;;;;;;;18.30;63.50;;;;;;5095190;28;20274;-65
2021/08/16 03:07:15;;;;;;;;;;;18.20;62.30;;;;;;5095190;28;19912;-65
2021/08/16 03:09:42;;;;;;;;;;;18.30;61.70;;;;;;5094876;28;19908;-64
2021/08/16 03:12:09;;;;;;;;;;;18.20;62.30;;;;;;5095014;28;19977;-64
2021/08/16 03:14:36;;;;;;;;;;;18.20;62.50;;;;;;5095269;28;20255;-64
2021/08/16 03:17:02;;;;;;;;;;;18.20;62.10;;;;;;5095202;28;19920;-65
2021/08/16 03:19:29;;;;;;;;;;;18.40;61.80;;;;;;5095070;28;19908;-66
2021/08/16 03:21:56;;;;;;;;;;;18.50;61.70;;;;;;5094971;28;19915;-64
2021/08/16 03:24:23;;;;;;;;;;;18.40;61.50;;;;;;5095165;28;19908;-65
2021/08/16 03:26:50;;;;;;;;;;;18.30;62.70;;;;;;5094822;28;20347;-65
2021/08/16 03:29:17;;;;;;;;;;;18.30;62.80;;;;;;5094749;28;19919;-65
2021/08/16 03:31:44;;;;;;;;;;;18.60;62.00;;;;;;5094570;28;19912;-66
2021/08/16 03:34:11;;;;;;;;;;;18.70;62.00;;;;;;5094790;28;19909;-65
2021/08/16 03:36:38;;;;;;;;;;;18.70;62.40;;;;;;5094469;28;19923;-64
2021/08/16 03:39:05;;;;;;;;;;;18.70;61.60;;;;;;5094828;28;19912;-64
2021/08/16 03:41:31;;;;;;;;;;;18.80;62.60;;;;;;5094595;28;19952;-64
2021/08/16 03:43:58;;;;;;;;;;;18.80;63.00;;;;;;5094715;28;20278;-65
2021/08/16 03:46:24;;;;;;;;;;;18.70;61.80;;;;;;5094165;28;19920;-64
2021/08/16 03:48:51;;;;;;;;;;;18.70;61.80;;;;;;5094466;28;20006;-64
2021/08/16 03:51:18;;;;;;;;;;;18.60;61.90;;;;;;5094374;28;19916;-64
2021/08/16 03:53:44;;;;;;;;;;;18.70;60.00;;;;;;5094599;28;19912;-66
2021/08/16 03:56:11;;;;;;;;;;;18.80;60.50;;;;;;5094545;28;19965;-66
2021/08/16 03:58:40;;;;;;;;;;;18.90;60.10;;;;;;5094550;28;19957;-64
2021/08/16 04:01:08;;;;;;;;;;;18.80;60.10;;;;;;5094494;28;19909;-67
2021/08/16 04:03:34;;;;;;;;;;;19.00;60.10;;;;;;5093674;28;19909;-66
2021/08/16 04:06:01;;;;;;;;;;;18.90;60.50;;;;;;5094238;28;20327;-66
2021/08/16 04:08:28;;;;;;;;;;;19.00;61.00;;;;;;5094186;28;19912;-68
2021/08/16 04:10:54;;;;;;;;;;;19.10;60.70;;;;;;5094178;28;19929;-67
2021/08/16 04:13:21;;;;;;;;;;;19.10;59.90;;;;;;5094135;28;19916;-67
2021/08/16 04:15:48;;;;;;;;;;;19.00;59.50;;;;;;5093595;28;19946;-66
2021/08/16 04:18:14;;;;;;;;;;;18.90;62.20;;;;;;5093964;28;19912;-65
2021/08/16 04:20:41;;;;;;;;;;;19.00;59.80;;;;;;5094038;28;19908;-66
2021/08/16 04:23:08;;;;;;;;;;;18.90;60.40;;;;;;5093843;28;19954;-66
2021/08/16 04:25:35;;;;;;;;;;;19.10;60.10;;;;;;5093533;28;19912;-65
2021/08/16 04:28:01;;;;;;;;;;;19.00;60.00;;;;;;5093799;28;19908;-66
2021/08/16 04:30:28;;;;;;;;;;;19.30;60.50;;;;;;5093797;28;20319;-67
2021/08/16 04:32:55;;;;;;;;;;;19.30;59.00;;;;;;5093802;28;20026;-67
2021/08/16 04:35:22;;;;;;;;;;;19.30;59.60;;;;;;5093767;28;19909;-67
2021/08/16 04:37:48;;;;;;;;;;;19.10;59.60;;;;;;5093441;28;19916;-67
2021/08/16 04:40:15;;;;;;;;;;;19.20;59.90;;;;;;5093638;28;19999;-66
2021/08/16 04:42:42;;;;;;;;;;;19.30;58.90;;;;;;5093381;28;20367;-66
2021/08/16 04:45:10;;;;;;;;;;;19.40;59.50;;;;;;5093440;28;19915;-65
2021/08/16 04:47:37;;;;;;;;;;;19.50;59.00;;;;;;5092997;28;19960;-66
2021/08/16 04:50:05;;;;;;;;;;;19.60;57.90;;;;;;5093472;28;19912;-67
2021/08/16 04:52:31;;;;;;;;;;;19.70;58.30;;;;;;5093492;28;20011;-67
2021/08/16 04:54:58;;;;;;;;;;;19.60;58.10;;;;;;5093337;28;19951;-67
2021/08/16 04:57:34;;;;;;;;;;;19.60;58.50;;;;;;5093288;28;19916;-66
2021/08/16 05:00:02;;;;;;;;;;;19.60;58.20;;;;;;5093106;28;20298;-66
2021/08/16 05:02:29;;;;;;;;;;;19.60;58.50;;;;;;5093283;28;20316;-65
2021/08/16 05:05:03;;;;;;;;;;;19.50;58.90;;;;;;5093033;28;19930;-65
2021/08/16 05:07:30;;;;;;;;;;;19.60;59.00;;;;;;5092707;28;19908;-65
2021/08/16 05:09:57;;;;;;;;;;;19.60;58.60;;;;;;5092855;28;20313;-65
2021/08/16 05:12:24;;;;;;;;;;;19.60;58.50;;;;;;5093026;28;20353;-65
2021/08/16 05:14:52;;;;;;;;;;;19.50;59.00;;;;;;5092578;28;19908;-65
2021/08/16 05:17:19;;;;;;;;;;;19.50;59.10;;;;;;5092681;28;19917;-65
2021/08/16 05:19:46;;;;;;;;;;;19.50;59.80;;;;;;5092636;28;19908;-65
2021/08/16 05:22:12;;;;;;;;;;;19.40;59.50;;;;;;5092810;28;19953;-65
2021/08/16 05:24:39;;;;;;;;;;;19.40;56.70;;;;;;5092687;28;20196;-65
2021/08/16 05:27:05;;;;;;;;;;;19.60;54.90;;;;;;5092733;28;19974;-65
2021/08/16 05:29:32;;;;;;;;;;;19.90;54.10;;;;;;5092543;28;20366;-64
2021/08/16 05:31:59;;;;;;;;;;;19.90;55.20;;;;;;5092724;28;19912;-65
2021/08/16 05:34:25;;;;;;;;;;;19.90;56.10;;;;;;5092720;28;20275;-65
2021/08/16 05:36:52;;;;;;;;;;;20.00;56.70;;;;;;5092269;28;19962;-65
2021/08/16 05:39:19;;;;;;;;;;;20.00;56.40;;;;;;5092298;28;20394;-66
2021/08/16 05:41:46;;;;;;;;;;;20.00;56.20;;;;;;5092410;28;19908;-64
2021/08/16 05:44:12;;;;;;;;;;;19.90;55.70;;;;;;5074385;28;19915;-64
2021/08/16 05:46:39;;;;;;;;;;;20.00;56.40;;;;;;5092380;28;19920;-65
2021/08/16 05:49:06;;;;;;;;;;;20.10;56.60;;;;;;5092429;28;19962;-65
2021/08/16 05:51:32;;;;;;;;;;;20.10;56.40;;;;;;5091979;28;20354;-67
2021/08/16 05:53:59;;;;;;;;;;;20.10;56.40;;;;;;5092419;28;20025;-66
2021/08/16 05:56:25;;;;;;;;;;;20.00;56.20;;;;;;5092177;28;19923;-64
2021/08/16 05:58:52;;;;;;;;;;;20.00;55.60;;;;;;5092379;28;20278;-66
2021/08/16 06:01:19;;;;;;;;;;;19.90;55.80;;;;;;5092304;28;19908;-66
2021/08/16 06:03:45;;;;;;;;;;;19.90;56.10;;;;;;5091924;28;19908;-65
2021/08/16 06:06:12;;;;;;;;;;;19.90;56.20;;;;;;5092425;28;20433;-67
2021/08/16 06:08:39;;;;;;;;;;;19.80;56.40;;;;;;5092262;28;19948;-67
2021/08/16 06:11:05;;;;;;;;;;;19.80;56.50;;;;;;5092376;28;19908;-66
2021/08/16 06:13:32;;;;;;;;;;;19.70;56.50;;;;;;5092057;28;19909;-66
2021/08/16 06:15:59;;;;;;;;;;;19.70;56.70;;;;;;5091986;28;19919;-72
2021/08/16 06:18:26;;;;;;;;;;;19.60;57.20;;;;;;5092436;28;19935;-66
2021/08/16 06:20:54;;;;;;;;;;;19.50;58.30;;;;;;5092240;28;20267;-66
2021/08/16 06:23:21;;;;;;;;;;;19.50;58.30;;;;;;5091943;28;20386;-65
2021/08/16 06:25:47;;;;;;;;;;;19.40;57.80;;;;;;5093269;28;20317;-67
2021/08/16 06:28:14;;;;;;;;;;;19.30;58.60;;;;;;5096179;28;19912;-65
2021/08/16 06:30:41;;;;;;;;;;;19.20;59.50;;;;;;5095812;28;19908;-67
2021/08/16 06:33:07;;;;;;;;;;;19.10;59.90;;;;;;5096206;28;19908;-65
2021/08/16 06:35:36;;;;;;;;;;;19.10;60.60;;;;;;5095632;28;19912;-67
2021/08/16 06:38:09;;;;;;;;;;;19.00;60.30;;;;;;5096109;28;20347;-68
2021/08/16 06:40:37;;;;;;;;;;;19.00;59.70;;;;;;5095921;28;20358;-67
2021/08/16 06:43:05;;;;;;;;;;;18.90;60.30;;;;;;5095539;28;19912;-66
2021/08/16 06:45:31;;;;;;;;;;;18.80;60.00;;;;;;5095349;28;20385;-66
2021/08/16 06:47:58;;;;;;;;;;;18.70;59.60;;;;;;5095441;28;20049;-67
2021/08/16 06:50:25;;;;;;;;;;;18.70;60.50;;;;;;5095483;28;19947;-68
2021/08/16 06:52:51;;;;;;;;;;;18.60;61.50;;;;;;5092732;28;19912;-67
2021/08/16 06:55:18;;;;;;;;;;;18.60;61.60;;;;;;5093483;28;19909;-67
2021/08/16 06:57:45;;;;;;;;;;;18.50;61.10;;;;;;5093326;28;19916;-66
2021/08/16 07:00:11;;;;;;;;;;;18.50;61.30;;;;;;5093700;28;19908;-67
2021/08/16 07:02:41;;;;;;;;;;;18.40;61.60;;;;;;5093511;28;19998;-66
2021/08/16 07:05:09;;;;;;;;;;;18.40;62.30;;;;;;5092950;28;20327;-66
2021/08/16 07:07:36;;;;;;;;;;;18.40;62.10;;;;;;5092921;28;20162;-66
2021/08/16 07:10:03;;;;;;;;;;;18.40;61.70;;;;;;5093049;28;19908;-66
2021/08/16 07:12:30;;;;;;;;;;;18.30;62.80;;;;;;5092943;28;20355;-65
2021/08/16 07:14:56;;;;;;;;;;;18.30;62.90;;;;;;5093116;28;19915;-65
2021/08/16 07:17:23;;;;;;;;;;;18.20;63.80;;;;;;5092650;28;19968;-65
2021/08/16 07:19:50;;;;;;;;;;;18.20;62.00;;;;;;5092703;28;19915;-65
2021/08/16 07:22:16;;;;;;;;;;;18.20;61.70;;;;;;5093124;28;19939;-66
2021/08/16 07:24:44;;;;;;;;;;;18.10;62.00;;;;;;5092901;28;19913;-67
2021/08/16 07:27:11;;;;;;;;;;;18.10;63.10;;;;;;5058107;28;20279;-66
2021/08/16 07:29:37;;;;;;;;;;;18.00;62.80;;;;;;5092352;28;19912;-68
2021/08/16 07:32:04;;;;;;;;;;;17.90;62.60;;;;;;5092354;28;19912;-69
2021/08/16 07:34:33;;;;;;;;;;;17.80;62.50;;;;;;5092853;28;20274;-67
2021/08/16 07:37:00;;;;;;;;;;;17.80;62.00;;;;;;5092144;28;19916;-67
2021/08/16 07:39:26;;;;;;;;;;;17.80;62.90;;;;;;5092629;28;19908;-68
2021/08/16 07:41:53;;;;;;;;;;;17.70;63.80;;;;;;5074255;28;19912;-68
2021/08/16 07:44:20;;;;;;;;;;;17.60;63.30;;;;;;5092252;28;19912;-65
2021/08/16 07:46:46;;;;;;;;;;;17.60;63.60;;;;;;5092471;28;20011;-65
2021/08/16 07:49:13;;;;;;;;;;;17.50;65.00;;;;;;5092506;28;20618;-64
2021/08/16 07:51:40;;;;;;;;;;;17.50;64.30;;;;;;5092328;28;19908;-68
2021/08/16 07:54:06;;;;;;;;;;;17.40;64.20;;;;;;5092403;28;20316;-67
2021/08/16 07:56:33;;;;;;;;;;;17.50;64.60;;;;;;5092250;28;19954;-67
2021/08/16 07:59:00;;;;;;;;;;;17.50;65.70;;;;;;5092325;28;19908;-64
2021/08/16 08:01:26;;;;;;;;;;;17.40;65.40;;;;;;5092424;28;19999;-63
2021/08/16 08:03:53;;;;;;;;;;;17.30;65.30;;;;;;5074011;28;20370;-64
2021/08/16 08:06:21;;;;;;;;;;;17.20;65.70;;;;;;5092295;28;19962;-66
2021/08/16 08:08:48;;;;;;;;;;;17.20;65.80;;;;;;5091755;28;19908;-66
2021/08/16 08:11:14;;;;;;;;;;;17.20;66.10;;;;;;5091844;28;19999;-65
2021/08/16 08:13:41;;;;;;;;;;;17.20;68.00;;;;;;5091904;28;19999;-65
2021/08/16 08:16:07;;;;;;;;;;;17.10;66.80;;;;;;5092181;28;20039;-65
2021/08/16 08:18:34;;;;;;;;;;;17.00;67.60;;;;;;5091752;28;19955;-64
2021/08/16 08:21:01;;;;;;;;;;;17.00;67.20;;;;;;5092026;28;19944;-65
2021/08/16 08:23:27;;;;;;;;;;;16.90;67.40;;;;;;5091658;28;19908;-65
2021/08/16 08:25:54;;;;;;;;;;;16.90;68.10;;;;;;5091589;28;19912;-65
2021/08/16 08:28:21;;;;;;;;;;;16.80;68.30;;;;;;5092027;28;19912;-65
2021/08/16 08:30:47;;;;;;;;;;;16.80;68.90;;;;;;5092142;28;19912;-65
2021/08/16 08:33:15;;;;;;;;;;;16.70;69.40;;;;;;5091533;28;20287;-64
2021/08/16 08:35:46;;;;;;;;;;;16.70;69.70;;;;;;5091126;28;19909;-65
2021/08/16 08:38:12;;;;;;;;;;;16.60;70.30;;;;;;5091199;28;19912;-65
2021/08/16 08:40:39;;;;;;;;;;;16.40;70.50;;;;;;5091542;28;19908;-65
2021/08/16 08:43:11;;;;;;;;;;;16.30;70.50;;;;;;5089144;28;19908;-66
2021/08/16 08:45:38;;;;;;;;;;;16.30;70.50;;;;;;5071501;28;19912;-66
2021/08/16 08:48:05;;;;;;;;;;;16.20;70.40;;;;;;5091326;28;19969;-65
2021/08/16 08:50:32;;;;;;;;;;;16.10;70.70;;;;;;5090503;28;20378;-66
2021/08/16 08:52:59;;;;;;;;;;;16.00;70.70;;;;;;5090697;28;19908;-65
2021/08/16 08:55:26;;;;;;;;;;;15.90;71.10;;;;;;5089461;28;20302;-65
2021/08/16 08:57:53;;;;;;;;;;;15.90;71.20;;;;;;5090457;28;19916;-65
2021/08/16 09:00:20;;;;;;;;;;;15.90;71.40;;;;;;5091131;28;19960;-67
2021/08/16 09:03:03;;;;;;;;;;;15.80;71.70;;;;;;5091124;28;19981;-66
2021/08/16 09:05:31;;;;;;;;;;;15.70;71.70;;;;;;5091657;28;19908;-66
2021/08/16 09:08:00;;;;;;;;;;;15.70;71.90;;;;;;5082301;28;20352;-66
2021/08/16 09:10:28;;;;;;;;;;;15.70;72.30;;;;;;5073034;28;20049;-65
2021/08/16 09:12:59;;;;;;;;;;;15.60;72.30;;;;;;5072705;28;19948;-67
2021/08/16 09:15:26;;;;;;;;;;;15.60;72.40;;;;;;5072691;28;20003;-65
2021/08/16 09:17:53;;;;;;;;;;;15.50;72.50;;;;;;5072294;28;20367;-67
2021/08/16 09:20:26;;;;;;;;;;;15.50;72.80;;;;;;5072187;28;20359;-67
2021/08/16 09:23:06;;;;;;;;;;;15.50;73.90;;;;;;5071196;28;19908;-66
2021/08/16 09:25:37;;;;;;;;;;;15.40;73.00;;;;;;5068693;28;20058;-67
2021/08/16 09:28:04;;;;;;;;;;;15.40;73.60;;;;;;5092305;28;19964;-66
2021/08/16 09:30:34;;;;;;;;;;;15.40;73.10;;;;;;5092671;28;19908;-67
2021/08/16 09:33:20;;;;;;;;;;;15.40;73.50;;;;;;5092367;28;19931;-67
2021/08/16 09:35:51;;;;;;;;;;;15.30;73.10;;;;;;5091888;28;20373;-66
2021/08/16 09:38:17;;;;;;;;;;;15.30;73.20;;;;;;5091160;28;19964;-67
2021/08/16 09:40:44;;;;;;;;;;;15.30;73.20;;;;;;5092722;28;20352;-68
2021/08/16 09:43:11;;;;;;;;;;;15.30;73.20;;;;;;5092920;28;20005;-65
2021/08/16 09:45:39;;;;;;;;;;;15.20;74.50;;;;;;5092656;28;20266;-65
2021/08/16 09:48:10;;;;;;;;;;;15.30;73.60;;;;;;5093012;28;20038;-65
2021/08/16 09:50:37;;;;;;;;;;;15.20;73.50;;;;;;5092058;28;19908;-66
2021/08/16 09:53:15;;;;;;;;;;;15.20;73.90;;;;;;5092664;28;20294;-66
2021/08/16 09:55:43;;;;;;;;;;;15.20;73.90;;;;;;5092867;28;19909;-65
2021/08/16 09:58:18;;;;;;;;;;;15.10;73.70;;;;;;5093168;28;19923;-66
2021/08/16 10:00:47;;;;;;;;;;;15.10;73.90;;;;;;5094456;28;19940;-66
2021/08/16 10:03:14;;;;;;;;;;;15.10;74.20;;;;;;5099608;28;19912;-64
2021/08/16 10:05:41;;;;;;;;;;;15.00;73.50;;;;;;5098125;28;19908;-67
2021/08/16 10:08:13;;;;;;;;;;;15.00;73.60;;;;;;5098702;28;19947;-69
2021/08/16 10:10:41;;;;;;;;;;;15.00;74.10;;;;;;5098758;28;19912;-67
2021/08/16 10:13:09;;;;;;;;;;;15.00;74.10;;;;;;5099057;28;19915;-66
2021/08/16 10:15:37;;;;;;;;;;;15.00;74.20;;;;;;5098779;28;19915;-66
2021/08/16 10:18:05;;;;;;;;;;;15.00;73.70;;;;;;5098890;28;19931;-67
2021/08/16 10:20:32;;;;;;;;;;;15.00;74.00;;;;;;5098345;28;19912;-66
2021/08/16 10:22:58;;;;;;;;;;;14.90;73.70;;;;;;5098707;28;19908;-67
2021/08/16 10:25:25;;;;;;;;;;;14.90;73.40;;;;;;5098914;28;20616;-66
2021/08/16 10:28:01;;;;;;;;;;;14.90;73.10;;;;;;5098630;28;20278;-66
2021/08/16 10:30:28;;;;;;;;;;;14.90;74.10;;;;;;5098916;28;20430;-68
2021/08/16 10:33:02;;;;;;;;;;;14.80;75.30;;;;;;5098752;28;19939;-66
2021/08/16 10:35:38;;;;;;;;;;;14.80;73.20;;;;;;5092773;28;19908;-68
2021/08/16 10:38:11;;;;;;;;;;;14.80;73.60;;;;;;5098421;28;20252;-69
2021/08/16 10:40:42;;;;;;;;;;;14.70;73.40;;;;;;5098476;28;20389;-66
2021/08/16 10:43:10;;;;;;;;;;;14.70;74.40;;;;;;5098483;28;20381;-66
2021/08/16 10:45:44;;;;;;;;;;;14.70;73.90;;;;;;5098082;28;20358;-66
2021/08/16 10:48:19;;;;;;;;;;;14.60;74.00;;;;;;5098708;28;19916;-66
2021/08/16 10:50:46;;;;;;;;;;;14.60;74.40;;;;;;5098650;28;19915;-65
2021/08/16 10:53:13;;;;;;;;;;;14.60;75.30;;;;;;5098273;28;20631;-65
2021/08/16 10:55:41;;;;;;;;;;;14.60;74.70;;;;;;5096290;28;20359;-66
2021/08/16 10:58:11;;;;;;;;;;;14.60;74.90;;;;;;5098451;28;20318;-66
2021/08/16 11:00:39;;;;;;;;;;;14.60;74.50;;;;;;5080176;28;20065;-65
2021/08/16 11:03:07;;;;;;;;;;;14.50;74.50;;;;;;5090282;28;19908;-65
2021/08/16 11:05:39;;;;;;;;;;;14.50;76.40;;;;;;5098134;28;20350;-65
2021/08/16 11:08:06;;;;;;;;;;;14.50;74.70;;;;;;5098415;28;19908;-69
2021/08/16 11:10:47;;;;;;;;;;;14.50;75.10;;;;;;5098426;28;19912;-66
2021/08/16 11:13:19;;;;;;;;;;;14.40;74.70;;;;;;5094695;28;19912;-67
2021/08/16 11:15:47;;;;;;;;;;;14.40;74.50;;;;;;5094963;28;20053;-65
2021/08/16 11:18:18;;;;;;;;;;;14.40;75.60;;;;;;5094708;28;19916;-66
2021/08/16 11:20:46;;;;;;;;;;;14.40;75.10;;;;;;5095159;28;20001;-65
2021/08/16 11:23:13;;;;;;;;;;;14.30;74.40;;;;;;5094986;28;20278;-64
2021/08/16 11:25:56;;;;;;;;;;;14.30;74.90;;;;;;5094972;28;20057;-65
2021/08/16 11:28:24;;;;;;;;;;;14.30;74.90;;;;;;5094988;28;19952;-65
2021/08/16 11:31:00;;;;;;;;;;;14.30;75.20;;;;;;5094923;28;19919;-66
2021/08/16 11:33:26;;;;;;;;;;;14.30;74.80;;;;;;5094406;28;19919;-66
2021/08/16 11:36:03;;;;;;;;;;;14.30;74.80;;;;;;5094448;28;19919;-65
2021/08/16 11:38:29;;;;;;;;;;;14.20;74.60;;;;;;5095020;28;20060;-65
2021/08/16 11:41:07;;;;;;;;;;;14.20;74.80;;;;;;5094993;28;19948;-65
2021/08/16 11:43:34;;;;;;;;;;;14.20;75.80;;;;;;5094382;28;19919;-65
2021/08/16 11:46:14;;;;;;;;;;;14.20;75.00;;;;;;5094842;28;19920;-66
2021/08/16 11:48:49;;;;;;;;;;;14.20;74.90;;;;;;5094341;28;19913;-66
2021/08/16 11:51:16;;;;;;;;;;;14.20;74.20;;;;;;5094614;28;19908;-65
2021/08/16 11:53:45;;;;;;;;;;;14.10;74.40;;;;;;5094448;28;19995;-67
2021/08/16 11:56:12;;;;;;;;;;;14.20;74.30;;;;;;5094360;28;20278;-65
2021/08/16 11:58:40;;;;;;;;;;;14.20;74.10;;;;;;5094466;28;20397;-66
2021/08/16 12:01:07;;;;;;;;;;;14.10;74.40;;;;;;5094559;28;19961;-67
2021/08/16 12:03:34;;;;;;;;;;;14.10;74.20;;;;;;5093896;28;20343;-67
2021/08/16 12:06:04;;;;;;;;;;;14.10;74.80;;;;;;5094256;28;19936;-67
2021/08/16 12:08:35;;;;;;;;;;;14.10;75.10;;;;;;5094450;28;20355;-65
2021/08/16 12:11:09;;;;;;;;;;;14.10;74.80;;;;;;5094387;28;19909;-65
2021/08/16 12:13:36;;;;;;;;;;;14.00;75.30;;;;;;5094082;28;19908;-65
2021/08/16 12:16:03;;;;;;;;;;;14.00;74.50;;;;;;5094431;28;19912;-67
2021/08/16 12:18:33;;;;;;;;;;;14.10;74.30;;;;;;5093645;28;19913;-66
2021/08/16 12:21:00;;;;;;;;;;;14.00;75.20;;;;;;5094116;28;19912;-66
2021/08/16 12:23:28;;;;;;;;;;;14.00;74.50;;;;;;5093753;28;19973;-66
2021/08/16 12:25:55;;;;;;;;;;;14.00;74.90;;;;;;5093669;28;19912;-67
2021/08/16 12:28:21;;;;;;;;;;;14.00;75.10;;;;;;5093856;28;19930;-66
2021/08/16 12:30:48;;;;;;;;;;;14.00;75.10;;;;;;5093842;28;19908;-66
2021/08/16 12:33:16;;;;;;;;;;;14.00;76.10;;;;;;5093276;28;19908;-66
2021/08/16 12:35:54;;;;;;;;;;;14.00;75.50;;;;;;5096896;28;19908;-65
2021/08/16 12:38:25;;;;;;;;;;;14.00;75.60;;;;;;5102931;28;19916;-65
2021/08/16 12:41:07;;;;;;;;;;;13.90;76.30;;;;;;5100068;28;19908;-67
2021/08/16 12:43:41;;;;;;;;;;;13.90;75.90;;;;;;5073551;28;19912;-67
2021/08/16 12:46:08;;;;;;;;;;;13.90;76.30;;;;;;5088444;28;19912;-67
2021/08/16 12:48:41;;;;;;;;;;;13.80;76.60;;;;;;5093586;28;20007;-67
2021/08/16 12:51:08;;;;;;;;;;;13.80;77.40;;;;;;5094901;28;19977;-65
2021/08/16 12:53:37;;;;;;;;;;;13.90;77.30;;;;;;5094085;28;19908;-67
2021/08/16 12:56:05;;;;;;;;;;;13.90;77.40;;;;;;5093569;28;20385;-67
2021/08/16 12:58:31;;;;;;;;;;;13.90;78.20;;;;;;5093488;28;19912;-65
2021/08/16 13:00:59;;;;;;;;;;;13.80;78.20;;;;;;5086821;28;19970;-65
2021/08/16 13:03:26;;;;;;;;;;;13.90;79.10;;;;;;5078359;28;19942;-67
2021/08/16 13:05:53;;;;;;;;;;;13.80;78.60;;;;;;5092769;28;19942;-67
2021/08/16 13:08:20;;;;;;;;;;;13.80;78.90;;;;;;5093081;28;19974;-66
2021/08/16 13:10:46;;;;;;;;;;;13.70;80.20;;;;;;5093134;28;19930;-66
2021/08/16 13:13:13;;;;;;;;;;;13.70;79.20;;;;;;5093192;28;20275;-67
2021/08/16 13:15:40;;;;;;;;;;;13.70;79.40;;;;;;5092749;28;19912;-67
2021/08/16 13:18:06;;;;;;;;;;;13.70;80.00;;;;;;5092973;28;20375;-67
2021/08/16 13:20:37;;;;;;;;;;;13.60;80.30;;;;;;5092944;28;19908;-67
2021/08/16 13:23:04;;;;;;;;;;;13.60;80.40;;;;;;5092988;28;19908;-67
2021/08/16 13:25:34;;;;;;;;;;;13.60;80.50;;;;;;5092636;28;20346;-66
2021/08/16 13:28:01;;;;;;;;;;;13.50;80.90;;;;;;5092975;28;19912;-66
2021/08/16 13:30:27;;;;;;;;;;;13.50;80.90;;;;;;5092745;28;19908;-64
2021/08/16 13:32:54;;;;;;;;;;;13.50;81.40;;;;;;5092884;28;20386;-64
2021/08/16 13:35:21;;;;;;;;;;;13.50;81.80;;;;;;5092282;28;19908;-65
2021/08/16 13:37:47;;;;;;;;;;;13.50;81.40;;;;;;5092531;28;19939;-64
2021/08/16 13:40:14;;;;;;;;;;;13.50;81.60;;;;;;5092588;28;19916;-64
2021/08/16 13:42:41;;;;;;;;;;;13.40;81.80;;;;;;5092525;28;19909;-65
2021/08/16 13:45:08;;;;;;;;;;;13.40;81.90;;;;;;5092542;28;19914;-65
2021/08/16 13:47:35;;;;;;;;;;;13.50;81.90;;;;;;5092166;28;20330;-65
2021/08/16 13:50:01;;;;;;;;;;;13.40;82.20;;;;;;5092508;28;19908;-65
2021/08/16 13:52:29;;;;;;;;;;;13.40;82.50;;;;;;5092372;28;19908;-64
2021/08/16 13:54:57;;;;;;;;;;;13.40;82.90;;;;;;5092468;28;19954;-65
2021/08/16 13:57:27;;;;;;;;;;;13.40;82.60;;;;;;5092518;28;19955;-66
2021/08/16 13:59:54;;;;;;;;;;;13.40;82.80;;;;;;5092238;28;19912;-67
2021/08/16 14:02:21;;;;;;;;;;;13.30;82.90;;;;;;5092570;28;19943;-65
2021/08/16 14:04:48;;;;;;;;;;;13.30;83.20;;;;;;5092312;28;19918;-65
2021/08/16 14:07:14;;;;;;;;;;;13.30;83.10;;;;;;5092287;28;19919;-67
2021/08/16 14:09:41;;;;;;;;;;;13.30;83.20;;;;;;5092014;28;19915;-65
2021/08/16 14:12:08;;;;;;;;;;;13.30;83.40;;;;;;5092289;28;19908;-65
2021/08/16 14:14:34;;;;;;;;;;;13.30;83.30;;;;;;5092418;28;19912;-64
2021/08/16 14:17:02;;;;;;;;;;;13.30;83.50;;;;;;5092166;28;19923;-65
2021/08/16 14:19:30;;;;;;;;;;;13.30;83.30;;;;;;5092290;28;19907;-65